Terminal Aerodrome Forecast
Issued by NWS

Home | Current Version | Previous Version | Text Only | Print | Product List | Glossary On
Versions: 1 2 3 4 5 6 7 8 9 10 11 12 13 14 15 16
000
FTUS43 KFGF 120804 AAA
TAFDVL
TAF AMD
KDVL 120804Z 1208/1306 26006KT P6SM OVC015
     FM121400 25006KT P6SM OVC050
     FM121900 25007KT P6SM SCT200
     FM130500 27007KT P6SM BKN100=

USA.gov is the U.S. government's official web portal to all federal, state and local government web resources and services.